Darstellungsparameter: Aktuell verwendete Einstellungen:
Skalierung der Graphiken ... ?
xyx+y,   Skalierungsfaktor:      Skalierung: Modus: x, Faktor: 1
Darstellungszeitraum ... ?
Vom - - bis: - -   Zeitraum: 22.01.2021 - 22.01.2021
Min/Max/Avg-Anzeige ... ?
Zeige MMA aktuell
Zeige MMA Monat
Zeige MMA alles
Zeige --A aktuell
Zeige --A Monat
Zeige --A alles
Keine MMA-Anzeige
MMA:
Average (ber die Originaldaten)
MMA-Basis: 22.01.2021 - 22.01.2021
Quicknavigation für Darstellung... ?
Tage:      1T, 2T, 3T, 5T -1T -2T -3T -5T +1T +2T +3T +5T
Wochen: 1W, 2W, 3W -1W -2W -3W +1W +2W +3W
Monate: 1M, 3M, 6M -1M -3M -6M +1M +3M +6M
Jahre:    1J, 3J, 5J, 10J -1J -3J -5J -10J +1J +3J +5J +10J
Nutze für die Darstellung ... ?
Originaldaten oder Mittelwerte auf ...
Stundenbasis Tagesbasis Wochenbasis
Monatsbasis Jahresbasis      Datenbasis: Original-Daten
Darstellen als:
Statistik (Auto) Statistik J:M      Darstellung:

Der gewünschte Datumsbereich war nicht gültig/verfügbar und wurde korrigiert....
Das angegebene Enddatum (13.06.2021 23:59:59) liegt in der Zukunft.
Das angegebene Startdatum (07.06.2021 00:00:00) liegt in der Zukunft.


Zur Graphik,    zurück zur Übersicht aller Sensoren.
 
Tabellarische Datenbersicht: ?
 
Sensor: Nr:Datum:Temp:Abs-Feuchte:Windchill:Wind:
Aussen-T/F 1 22-01-2021 01:00:00 10.3 C 8.04 g/m*3 7.98 C 17.7 km/h
2 22-01-2021 01:05:00 10.3 C 8.14 g/m*3 8.78 C 11.3 km/h
3 22-01-2021 01:10:00 10.3 C 8.24 g/m*3 9.34 C 8.1 km/h
4 22-01-2021 01:15:00 10.2 C 8.18 g/m*3 9.6 C 6.4 km/h
5 22-01-2021 01:20:00 10.1 C 8.13 g/m*3 7.91 C 16.1 km/h
6 22-01-2021 01:25:00 10 C 8.08 g/m*3 8.68 C 9.7 km/h
7 22-01-2021 01:30:00 9.9 C 8.12 g/m*3 9.25 C 6.4 km/h
8 22-01-2021 01:35:00 9.9 C 8.03 g/m*3 7.85 C 14.5 km/h
9 22-01-2021 01:40:00 10 C 8.08 g/m*3 8.19 C 12.9 km/h
10 22-01-2021 01:45:00 10.2 C 8.09 g/m*3 7.86 C 17.7 km/h
11 22-01-2021 01:50:00 10.2 C 8.28 g/m*3 8.03 C 16.1 km/h
12 22-01-2021 01:55:00 10.1 C 8.23 g/m*3 8.8 C 9.7 km/h
13 22-01-2021 02:00:00 9.9 C 8.12 g/m*3 8.3 C 11.3 km/h
14 22-01-2021 02:05:00 9.8 C 8.07 g/m*3 8.75 C 8.1 km/h
15 22-01-2021 02:10:00 9.6 C 8.06 g/m*3 8.21 C 9.7 km/h
16 22-01-2021 02:15:00 9.4 C 7.96 g/m*3 7.97 C 9.7 km/h
17 22-01-2021 02:20:00 9.5 C 8.01 g/m*3 8.09 C 9.7 km/h
18 22-01-2021 02:25:00 9.5 C 8.01 g/m*3 8.79 C 6.4 km/h
19 22-01-2021 02:30:00 9.6 C 8.06 g/m*3 8.91 C 6.4 km/h
20 22-01-2021 02:35:00 9.6 C 7.97 g/m*3 7.94 C 11.3 km/h
21 22-01-2021 02:40:00 9.7 C 8.02 g/m*3 7.82 C 12.9 km/h
22 22-01-2021 02:45:00 9.7 C 8.02 g/m*3 9.02 C 6.4 km/h
23 22-01-2021 02:50:00 9.7 C 8.02 g/m*3 8.06 C 11.3 km/h
24 22-01-2021 02:55:00 9.7 C 8.02 g/m*3 7.82 C 12.9 km/h
25 22-01-2021 03:00:00 9.7 C 8.02 g/m*3 7.82 C 12.9 km/h
Sensor: Nr:Datum:Temp:Abs-Feuchte:Windchill:Wind:
Aussen-T/F 26 22-01-2021 03:05:00 9.8 C 8.07 g/m*3 7.54 C 16.1 km/h
27 22-01-2021 03:10:00 9.8 C 8.07 g/m*3 7.73 C 14.5 km/h
28 22-01-2021 03:15:00 9.8 C 8.07 g/m*3 7.94 C 12.9 km/h
29 22-01-2021 03:20:00 9.8 C 8.07 g/m*3 7.19 C 19.3 km/h
30 22-01-2021 03:25:00 9.8 C 8.07 g/m*3 8.45 C 9.7 km/h
31 22-01-2021 03:30:00 9.8 C 8.07 g/m*3 7.94 C 12.9 km/h
32 22-01-2021 03:35:00 9.8 C 8.07 g/m*3 8.45 C 9.7 km/h
33 22-01-2021 03:40:00 9.9 C 8.12 g/m*3 7.02 C 22.5 km/h
34 22-01-2021 03:45:00 10 C 8.08 g/m*3 7.01 C 24.1 km/h
35 22-01-2021 03:50:00 10.1 C 8.13 g/m*3 7.91 C 16.1 km/h
36 22-01-2021 03:55:00 10.1 C 8.13 g/m*3 7.73 C 17.7 km/h
37 22-01-2021 04:00:00 10.1 C 8.23 g/m*3 9.1 C 8.1 km/h
38 22-01-2021 04:05:00 10 C 8.17 g/m*3 8.99 C 8.1 km/h
39 22-01-2021 04:10:00 10 C 8.17 g/m*3 8.99 C 8.1 km/h
40 22-01-2021 04:15:00 9.9 C 8.12 g/m*3 7.66 C 16.1 km/h
41 22-01-2021 04:20:00 10 C 8.17 g/m*3 7.98 C 14.5 km/h
42 22-01-2021 04:25:00 10.1 C 8.23 g/m*3 7.14 C 24.1 km/h
43 22-01-2021 04:30:00 10.1 C 8.23 g/m*3 8.1 C 14.5 km/h
44 22-01-2021 04:35:00 10.1 C 8.23 g/m*3 8.31 C 12.9 km/h
45 22-01-2021 04:40:00 10.1 C 8.13 g/m*3 8.31 C 12.9 km/h
46 22-01-2021 04:45:00 10.1 C 8.13 g/m*3 7.73 C 17.7 km/h
47 22-01-2021 04:50:00 10.2 C 8.18 g/m*3 8.03 C 16.1 km/h
48 22-01-2021 04:55:00 10.2 C 8.18 g/m*3 7.7 C 19.3 km/h
49 22-01-2021 05:00:00 10.3 C 8.24 g/m*3 7.98 C 17.7 km/h
50 22-01-2021 05:05:00 10.2 C 8.18 g/m*3 7.4 C 22.5 km/h
Sensor: Nr:Datum:Temp:Abs-Feuchte:Windchill:Wind:
Aussen-T/F 51 22-01-2021 05:10:00 10.2 C 8.28 g/m*3 7.86 C 17.7 km/h
52 22-01-2021 05:15:00 9.6 C 7.6 g/m*3 6.37 C 25.7 km/h
53 22-01-2021 05:20:00 8.7 C 7.35 g/m*3 6.85 C 11.3 km/h
54 22-01-2021 05:25:00 8.1 C 7.24 g/m*3 5.64 C 14.5 km/h
55 22-01-2021 05:30:00 7.6 C 7.09 g/m*3 5.82 C 9.7 km/h
56 22-01-2021 05:35:00 7.3 C 7.11 g/m*3 7.3 C 4.8 km/h
57 22-01-2021 05:40:00 7.1 C 7.02 g/m*3 7.1 C 4.8 km/h
58 22-01-2021 05:45:00 6.9 C 7.01 g/m*3 5.79 C 6.4 km/h
59 22-01-2021 05:50:00 6.7 C 6.91 g/m*3 6.7 C 3.2 km/h
60 22-01-2021 05:55:00 6.6 C 6.87 g/m*3 6.6 C 4.8 km/h
61 22-01-2021 06:00:00 6.6 C 6.95 g/m*3 6.6 C 4.8 km/h
62 22-01-2021 06:05:00 6.4 C 6.85 g/m*3 6.4 C 1.6 km/h
63 22-01-2021 06:10:00 6.4 C 6.85 g/m*3 6.4 C 4.8 km/h
64 22-01-2021 06:15:00 6.2 C 6.77 g/m*3 6.2 C 4.8 km/h
65 22-01-2021 06:20:00 6.2 C 6.84 g/m*3 6.2 C 1.6 km/h
66 22-01-2021 06:25:00 6.1 C 6.72 g/m*3 6.1 C 3.2 km/h
67 22-01-2021 06:30:00 5.9 C 6.63 g/m*3 5.9 C 3.2 km/h
68 22-01-2021 06:35:00 5.8 C 6.59 g/m*3 5.8 C 0 km/h
69 22-01-2021 06:40:00 5.8 C 6.66 g/m*3 5.8 C 0 km/h
70 22-01-2021 06:45:00 5.8 C 6.66 g/m*3 5.8 C 0 km/h
71 22-01-2021 06:50:00 5.7 C 6.62 g/m*3 5.7 C 0 km/h
72 22-01-2021 06:55:00 5.7 C 6.62 g/m*3 5.7 C 1.6 km/h
73 22-01-2021 07:00:00 5.6 C 6.57 g/m*3 5.6 C 3.2 km/h
74 22-01-2021 07:05:00 5.6 C 6.57 g/m*3 5.6 C 1.6 km/h
75 22-01-2021 07:10:00 5.4 C 6.49 g/m*3 4.06 C 6.4 km/h
Sensor: Nr:Datum:Temp:Abs-Feuchte:Windchill:Wind:
Aussen-T/F 76 22-01-2021 07:15:00 5.2 C 6.4 g/m*3 5.2 C 4.8 km/h
77 22-01-2021 07:20:00 5.1 C 6.36 g/m*3 3.71 C 6.4 km/h
78 22-01-2021 07:25:00 5 C 6.32 g/m*3 5 C 4.8 km/h
79 22-01-2021 07:30:00 4.9 C 6.28 g/m*3 4.9 C 0 km/h
80 22-01-2021 07:35:00 4.9 C 6.28 g/m*3 4.9 C 1.6 km/h
81 22-01-2021 07:40:00 4.9 C 6.28 g/m*3 4.9 C 0 km/h
82 22-01-2021 07:45:00 4.9 C 6.28 g/m*3 4.9 C 0 km/h
83 22-01-2021 07:50:00 4.8 C 6.3 g/m*3 4.8 C 0 km/h
84 22-01-2021 07:55:00 4.8 C 6.3 g/m*3 4.8 C 1.6 km/h
85 22-01-2021 08:00:00 4.8 C 6.3 g/m*3 4.8 C 1.6 km/h
86 22-01-2021 08:05:00 4.7 C 6.26 g/m*3 4.7 C 3.2 km/h
87 22-01-2021 08:10:00 4.7 C 6.26 g/m*3 4.7 C 1.6 km/h
88 22-01-2021 08:15:00 4.7 C 6.26 g/m*3 4.7 C 3.2 km/h
89 22-01-2021 08:20:00 4.6 C 6.22 g/m*3 4.6 C 1.6 km/h
90 22-01-2021 08:25:00 4.6 C 6.22 g/m*3 4.6 C 0 km/h
91 22-01-2021 08:30:00 4.6 C 6.22 g/m*3 4.6 C 0 km/h
92 22-01-2021 08:35:00 4.5 C 6.18 g/m*3 4.5 C 0 km/h
93 22-01-2021 08:40:00 4.5 C 6.18 g/m*3 4.5 C 1.6 km/h
94 22-01-2021 08:45:00 4.4 C 6.2 g/m*3 4.4 C 3.2 km/h
95 22-01-2021 08:50:00 4.4 C 6.2 g/m*3 4.4 C 3.2 km/h
96 22-01-2021 08:55:00 4.4 C 6.2 g/m*3 4.4 C 3.2 km/h
97 22-01-2021 09:00:00 4.4 C 6.2 g/m*3 4.4 C 4.8 km/h
98 22-01-2021 09:05:00 4.4 C 6.2 g/m*3 4.4 C 3.2 km/h
99 22-01-2021 09:10:00 4.4 C 6.2 g/m*3 4.4 C 4.8 km/h
100 22-01-2021 09:15:00 4.4 C 6.2 g/m*3 4.4 C 1.6 km/h
Sensor: Nr:Datum:Temp:Abs-Feuchte:Windchill:Wind:
Aussen-T/F 101 22-01-2021 09:20:00 4.4 C 6.2 g/m*3 4.4 C 3.2 km/h
102 22-01-2021 09:25:00 4.4 C 6.2 g/m*3 4.4 C 3.2 km/h
103 22-01-2021 09:30:00 4.4 C 6.2 g/m*3 4.4 C 4.8 km/h
104 22-01-2021 09:35:00 4.4 C 6.2 g/m*3 4.4 C 0 km/h
105 22-01-2021 09:40:00 4.4 C 6.2 g/m*3 4.4 C 1.6 km/h
106 22-01-2021 09:45:00 4.5 C 6.24 g/m*3 4.5 C 0 km/h
107 22-01-2021 09:50:00 4.6 C 6.29 g/m*3 4.6 C 1.6 km/h
108 22-01-2021 09:55:00 4.6 C 6.29 g/m*3 4.6 C 4.8 km/h
109 22-01-2021 10:00:00 4.6 C 6.29 g/m*3 4.6 C 3.2 km/h
110 22-01-2021 10:05:00 4.6 C 6.29 g/m*3 4.6 C 1.6 km/h
111 22-01-2021 10:10:00 4.7 C 6.33 g/m*3 4.7 C 1.6 km/h
112 22-01-2021 10:15:00 4.7 C 6.33 g/m*3 4.7 C 1.6 km/h
113 22-01-2021 10:20:00 4.7 C 6.33 g/m*3 4.7 C 3.2 km/h
114 22-01-2021 10:25:00 4.7 C 6.33 g/m*3 4.7 C 4.8 km/h
115 22-01-2021 10:30:00 4.7 C 6.33 g/m*3 4.7 C 1.6 km/h
116 22-01-2021 10:35:00 4.7 C 6.33 g/m*3 4.7 C 3.2 km/h
117 22-01-2021 10:40:00 4.7 C 6.33 g/m*3 4.7 C 0 km/h
118 22-01-2021 10:45:00 4.7 C 6.33 g/m*3 4.7 C 1.6 km/h
119 22-01-2021 10:50:00 4.7 C 6.33 g/m*3 4.7 C 0 km/h
120 22-01-2021 10:55:00 4.7 C 6.33 g/m*3 4.7 C 0 km/h
121 22-01-2021 11:00:00 4.8 C 6.37 g/m*3 4.8 C 1.6 km/h
122 22-01-2021 11:05:00 4.8 C 6.37 g/m*3 4.8 C 3.2 km/h
123 22-01-2021 11:10:00 4.8 C 6.37 g/m*3 4.8 C 3.2 km/h
124 22-01-2021 11:15:00 4.9 C 6.41 g/m*3 4.9 C 3.2 km/h
125 22-01-2021 11:20:00 4.9 C 6.41 g/m*3 4.9 C 4.8 km/h
Sensor: Nr:Datum:Temp:Abs-Feuchte:Windchill:Wind:
Aussen-T/F 126 22-01-2021 11:25:00 5.1 C 6.5 g/m*3 5.1 C 3.2 km/h
127 22-01-2021 11:30:00 5.2 C 6.61 g/m*3 5.2 C 3.2 km/h
128 22-01-2021 11:35:00 5.2 C 6.54 g/m*3 5.2 C 0 km/h
129 22-01-2021 11:40:00 5.3 C 6.58 g/m*3 5.3 C 3.2 km/h
130 22-01-2021 11:45:00 5.3 C 6.58 g/m*3 5.3 C 0 km/h
131 22-01-2021 11:50:00 5.3 C 6.58 g/m*3 5.3 C 1.6 km/h
132 22-01-2021 11:55:00 5.2 C 6.54 g/m*3 5.2 C 3.2 km/h
133 22-01-2021 12:00:00 5.2 C 6.54 g/m*3 5.2 C 1.6 km/h
134 22-01-2021 12:05:00 5.3 C 6.58 g/m*3 5.3 C 4.8 km/h
135 22-01-2021 12:10:00 5.3 C 6.52 g/m*3 5.3 C 3.2 km/h
136 22-01-2021 12:15:00 5.4 C 6.56 g/m*3 5.4 C 3.2 km/h
137 22-01-2021 12:20:00 5.5 C 6.67 g/m*3 5.5 C 0 km/h
138 22-01-2021 12:25:00 5.6 C 6.72 g/m*3 5.6 C 1.6 km/h
139 22-01-2021 12:30:00 5.7 C 6.69 g/m*3 5.7 C 0 km/h
140 22-01-2021 12:35:00 5.6 C 6.65 g/m*3 5.6 C 3.2 km/h
141 22-01-2021 12:40:00 5.6 C 6.65 g/m*3 5.6 C 1.6 km/h
142 22-01-2021 12:45:00 5.7 C 6.69 g/m*3 5.7 C 3.2 km/h
143 22-01-2021 12:50:00 5.7 C 6.62 g/m*3 5.7 C 4.8 km/h
144 22-01-2021 12:55:00 5.8 C 6.66 g/m*3 5.8 C 3.2 km/h
145 22-01-2021 13:00:00 5.8 C 6.66 g/m*3 5.8 C 3.2 km/h
146 22-01-2021 13:05:00 5.9 C 6.63 g/m*3 4.63 C 6.4 km/h
147 22-01-2021 13:10:00 6 C 6.68 g/m*3 6 C 3.2 km/h
148 22-01-2021 13:15:00 6.1 C 6.72 g/m*3 6.1 C 3.2 km/h
149 22-01-2021 13:20:00 6.1 C 6.72 g/m*3 6.1 C 3.2 km/h
150 22-01-2021 13:25:00 6.1 C 6.65 g/m*3 4.86 C 6.4 km/h
Sensor: Nr:Datum:Temp:Abs-Feuchte:Windchill:Wind:
Aussen-T/F 151 22-01-2021 13:30:00 6.1 C 6.65 g/m*3 4.4 C 8.1 km/h
152 22-01-2021 13:35:00 5.9 C 6.49 g/m*3 4.17 C 8.1 km/h
153 22-01-2021 13:40:00 5.9 C 6.49 g/m*3 5.9 C 4.8 km/h
154 22-01-2021 13:45:00 5.9 C 6.56 g/m*3 5.9 C 4.8 km/h
155 22-01-2021 13:50:00 5.9 C 6.56 g/m*3 4.63 C 6.4 km/h
156 22-01-2021 13:55:00 5.9 C 6.56 g/m*3 5.9 C 4.8 km/h
157 22-01-2021 14:00:00 5.9 C 6.56 g/m*3 5.9 C 3.2 km/h
158 22-01-2021 14:05:00 5.9 C 6.56 g/m*3 4.63 C 6.4 km/h
159 22-01-2021 14:10:00 5.9 C 6.56 g/m*3 4.63 C 6.4 km/h
160 22-01-2021 14:15:00 5.9 C 6.56 g/m*3 4.17 C 8.1 km/h
161 22-01-2021 14:20:00 6 C 6.6 g/m*3 4.75 C 6.4 km/h
162 22-01-2021 14:25:00 6.1 C 6.58 g/m*3 4.86 C 6.4 km/h
163 22-01-2021 14:30:00 6.1 C 6.58 g/m*3 6.1 C 4.8 km/h
164 22-01-2021 14:35:00 6.1 C 6.5 g/m*3 4.86 C 6.4 km/h
165 22-01-2021 14:40:00 6.1 C 6.58 g/m*3 6.1 C 1.6 km/h
166 22-01-2021 14:45:00 6.2 C 6.55 g/m*3 6.2 C 4.8 km/h
167 22-01-2021 14:50:00 6.2 C 6.55 g/m*3 4.98 C 6.4 km/h
168 22-01-2021 14:55:00 6.2 C 6.55 g/m*3 4.98 C 6.4 km/h
169 22-01-2021 15:00:00 6.2 C 6.55 g/m*3 6.2 C 0 km/h
170 22-01-2021 15:05:00 6.2 C 6.55 g/m*3 6.2 C 4.8 km/h
171 22-01-2021 15:10:00 6.2 C 6.55 g/m*3 6.2 C 4.8 km/h
172 22-01-2021 15:15:00 6.2 C 6.55 g/m*3 6.2 C 3.2 km/h
173 22-01-2021 15:20:00 6.2 C 6.47 g/m*3 6.2 C 4.8 km/h
174 22-01-2021 15:25:00 6.2 C 6.47 g/m*3 6.2 C 4.8 km/h
175 22-01-2021 15:30:00 6.3 C 6.59 g/m*3 6.3 C 1.6 km/h
Sensor: Nr:Datum:Temp:Abs-Feuchte:Windchill:Wind:
Aussen-T/F 176 22-01-2021 15:35:00 6.3 C 6.59 g/m*3 6.3 C 0 km/h
177 22-01-2021 15:40:00 6.3 C 6.59 g/m*3 6.3 C 0 km/h
178 22-01-2021 15:45:00 6.3 C 6.59 g/m*3 6.3 C 1.6 km/h
179 22-01-2021 15:50:00 6.3 C 6.59 g/m*3 6.3 C 0 km/h
180 22-01-2021 15:55:00 6.2 C 6.55 g/m*3 6.2 C 0 km/h
181 22-01-2021 16:00:00 6.2 C 6.62 g/m*3 6.2 C 0 km/h
182 22-01-2021 16:05:00 6.2 C 6.62 g/m*3 6.2 C 1.6 km/h
183 22-01-2021 16:10:00 6.2 C 6.62 g/m*3 6.2 C 0 km/h
184 22-01-2021 16:15:00 6.1 C 6.58 g/m*3 6.1 C 0 km/h
185 22-01-2021 16:20:00 6.1 C 6.58 g/m*3 6.1 C 1.6 km/h
186 22-01-2021 16:25:00 5.9 C 6.49 g/m*3 5.9 C 0 km/h
187 22-01-2021 16:30:00 5.8 C 6.45 g/m*3 5.8 C 1.6 km/h
188 22-01-2021 16:35:00 5.7 C 6.4 g/m*3 5.7 C 4.8 km/h
189 22-01-2021 16:40:00 5.5 C 6.39 g/m*3 5.5 C 4.8 km/h
190 22-01-2021 16:45:00 5.3 C 6.31 g/m*3 5.3 C 4.8 km/h
191 22-01-2021 16:50:00 5.2 C 6.27 g/m*3 5.2 C 3.2 km/h
192 22-01-2021 16:55:00 5 C 6.18 g/m*3 5 C 4.8 km/h
193 22-01-2021 17:00:00 4.8 C 6.1 g/m*3 4.8 C 4.8 km/h
194 22-01-2021 17:05:00 4.6 C 6.02 g/m*3 4.6 C 4.8 km/h
195 22-01-2021 17:10:00 4.4 C 5.94 g/m*3 4.4 C 4.8 km/h
196 22-01-2021 17:15:00 4.2 C 5.86 g/m*3 4.2 C 4.8 km/h
197 22-01-2021 17:20:00 4.1 C 5.82 g/m*3 4.1 C 4.8 km/h
198 22-01-2021 17:25:00 3.8 C 5.77 g/m*3 2.21 C 6.4 km/h
199 22-01-2021 17:30:00 3.7 C 5.73 g/m*3 2.09 C 6.4 km/h
200 22-01-2021 17:35:00 3.6 C 5.69 g/m*3 3.6 C 4.8 km/h
Sensor: Nr:Datum:Temp:Abs-Feuchte:Windchill:Wind:
Aussen-T/F 201 22-01-2021 17:40:00 3.4 C 5.62 g/m*3 3.4 C 4.8 km/h
202 22-01-2021 17:45:00 3.3 C 5.64 g/m*3 3.3 C 4.8 km/h
203 22-01-2021 17:50:00 3.2 C 5.6 g/m*3 3.2 C 3.2 km/h
204 22-01-2021 17:55:00 3.1 C 5.57 g/m*3 3.1 C 3.2 km/h
205 22-01-2021 18:00:00 3.1 C 5.57 g/m*3 3.1 C 3.2 km/h
206 22-01-2021 18:05:00 3 C 5.53 g/m*3 3 C 0 km/h

Legende:
   Min
   Max


Maximal/Minimal-Werte vom 22.01.2021 - 22.01.2021

Sensor Min Max Avg
Temp
(Aussen-T/F)
3 °C
22-01-2021  18:05:00
10.3 °C
22-01-2021  01:00:00
6.51 °C
Abs-Feuchte
(Aussen-T/F)
5.53 g/m*3
22-01-2021  18:05:00
8.28 g/m*3
22-01-2021  01:50:00
6.82 g/m*3
Windchill
(Aussen-T/F)
2.09 C
22-01-2021  17:30:00
9.6 C
22-01-2021  01:15:00
5.88 C

Die Daten stammen von einer Davis Vantage Pro 2 Wetter-Station und werden unter Linux mit der Software wview2wettercgi und aufbereitet. Alle Angaben erfolgen ohne Gewähr für ihre Vollständigkeit oder Richtigkeit.
Kontakt: Rainer Krienke krienke@uni-koblenz.de . Meine Webseiten an der Uni Koblenz oder privat.
Version: $Revision: 0.78 $